createdAt,value
2023-04-22T00:00:48.077Z,94.72
2023-04-22T00:03:15.933Z,95.33
2023-04-22T00:05:44.970Z,86.54
2023-04-22T00:08:12.700Z,88.98
2023-04-22T00:10:41.847Z,84.79
2023-04-22T00:13:09.516Z,87.54
2023-04-22T00:15:37.247Z,95.77
2023-04-22T00:18:05.164Z,88.96
2023-04-22T00:20:33.436Z,92.19
2023-04-22T00:23:01.073Z,91.64
2023-04-22T00:25:28.782Z,88.79
2023-04-22T00:27:57.944Z,82.91
2023-04-22T00:30:25.746Z,80.35
2023-04-22T00:32:53.942Z,93.87
2023-04-22T00:35:21.958Z,89.32
2023-04-22T00:37:49.924Z,89.18
2023-04-22T00:40:18.263Z,91.04
2023-04-22T00:42:45.970Z,88.75
2023-04-22T00:45:18.026Z,87.49
2023-04-22T00:47:45.955Z,85.69
2023-04-22T00:50:13.877Z,96.63
2023-04-22T00:52:41.576Z,93.08
2023-04-22T00:55:09.800Z,81.75
2023-04-22T00:57:37.592Z,85.85
2023-04-22T01:00:06.634Z,80.10
2023-04-22T01:02:35.970Z,81.73
2023-04-22T01:05:03.981Z,84.26
2023-04-22T01:07:31.694Z,86.70
2023-04-22T01:09:59.500Z,86.17
2023-04-22T01:12:27.216Z,95.77
2023-04-22T01:14:57.127Z,81.49
2023-04-22T01:17:25.846Z,79.75
2023-04-22T01:19:55.812Z,85.94
2023-04-22T01:22:23.947Z,81.11
2023-04-22T01:24:53.068Z,78.09
2023-04-22T01:27:20.758Z,80.34
2023-04-22T01:29:48.680Z,75.67
2023-04-22T01:32:16.458Z,82.01
2023-04-22T01:34:44.201Z,77.01
2023-04-22T01:37:12.036Z,81.98
2023-04-22T01:39:39.975Z,74.97
2023-04-22T01:42:09.613Z,78.16
2023-04-22T01:44:37.278Z,86.54
2023-04-22T01:47:05.418Z,92.80
2023-04-22T01:50:22.772Z,84.89
2023-04-22T01:52:50.703Z,84.83
2023-04-22T01:55:18.381Z,78.84
2023-04-22T01:57:47.514Z,84.02
2023-04-22T02:00:15.641Z,76.96
2023-04-22T02:02:43.413Z,77.63
2023-04-22T02:05:12.627Z,78.74
2023-04-22T02:07:40.358Z,82.93
2023-04-22T02:10:09.469Z,89.39
2023-04-22T02:12:37.174Z,86.22
2023-04-22T02:15:07.415Z,89.31
2023-04-22T02:17:35.879Z,82.62
2023-04-22T02:20:04.809Z,83.31
2023-04-22T02:22:33.046Z,85.57
2023-04-22T02:25:01.395Z,92.12
2023-04-22T02:27:29.069Z,83.06
2023-04-22T02:29:56.690Z,82.57
2023-04-22T02:32:25.780Z,84.02
2023-04-22T02:34:53.921Z,81.80
2023-04-22T02:37:22.850Z,82.14
2023-04-22T02:39:53.256Z,78.60
2023-04-22T02:42:20.938Z,76.01
2023-04-22T02:44:48.589Z,76.75
2023-04-22T02:47:16.233Z,77.78
2023-04-22T02:49:45.471Z,85.12
2023-04-22T02:52:13.175Z,87.10
2023-04-22T02:54:40.803Z,78.79
2023-04-22T02:57:08.751Z,84.72
2023-04-22T02:59:37.128Z,85.25
2023-04-22T03:02:06.846Z,83.27
2023-04-22T03:04:34.886Z,78.08
2023-04-22T03:07:04.339Z,80.34
2023-04-22T03:09:32.002Z,78.62
2023-04-22T03:11:59.878Z,81.07
2023-04-22T03:14:27.495Z,80.54
2023-04-22T03:16:55.480Z,74.09
2023-04-22T03:19:23.371Z,84.23
2023-04-22T03:21:51.010Z,85.46
2023-04-22T03:24:20.049Z,89.18
2023-04-22T03:26:47.810Z,88.42
2023-04-22T03:29:15.681Z,83.44
2023-04-22T03:31:43.336Z,80.97
2023-04-22T03:34:10.986Z,81.15
2023-04-22T03:36:38.731Z,79.22
2023-04-22T03:39:06.386Z,77.93
2023-04-22T03:41:36.040Z,82.44
2023-04-22T03:44:03.665Z,78.42
2023-04-22T03:46:32.031Z,75.01
2023-04-22T03:48:59.873Z,76.22
2023-04-22T03:51:27.562Z,76.32
2023-04-22T03:54:15.850Z,83.66
2023-04-22T03:56:44.922Z,81.82
2023-04-22T03:59:12.598Z,81.22
2023-04-22T04:01:40.255Z,86.17
2023-04-22T04:04:08.210Z,86.45
2023-04-22T04:06:36.023Z,81.87
2023-04-22T04:09:04.298Z,84.78
2023-04-22T04:11:32.015Z,79.15
2023-04-22T04:14:01.111Z,77.46
2023-04-22T04:16:28.936Z,80.13
2023-04-22T04:18:56.666Z,84.52
2023-04-22T04:21:24.320Z,82.80
2023-04-22T04:23:51.945Z,80.14
2023-04-22T04:26:20.506Z,80.21
2023-04-22T04:28:49.252Z,80.85
2023-04-22T04:31:18.499Z,81.80
2023-04-22T04:33:46.696Z,81.79
2023-04-22T04:36:14.484Z,82.23
2023-04-22T04:38:42.195Z,84.35
2023-04-22T04:41:10.698Z,82.39
2023-04-22T04:43:39.042Z,82.18
2023-04-22T04:46:08.385Z,86.94
2023-04-22T04:48:37.527Z,80.83
2023-04-22T04:51:06.267Z,81.27
2023-04-22T04:53:33.974Z,79.98
2023-04-22T04:56:01.610Z,86.18
2023-04-22T04:58:29.268Z,82.04
2023-04-22T05:00:56.911Z,87.10
2023-04-22T05:03:24.797Z,79.74
2023-04-22T05:05:54.035Z,82.29
2023-04-22T05:08:21.785Z,75.25
2023-04-22T05:10:49.522Z,74.22
2023-04-22T05:13:17.162Z,78.00
2023-04-22T05:15:44.826Z,79.92
2023-04-22T05:18:12.481Z,81.04
2023-04-22T05:20:40.134Z,74.96
2023-04-22T05:23:09.164Z,83.95
2023-04-22T05:25:36.876Z,83.94
2023-04-22T05:28:04.588Z,89.37
2023-04-22T05:30:32.280Z,91.41
2023-04-22T05:32:59.963Z,96.92
2023-04-22T05:35:28.391Z,87.40
2023-04-22T05:37:56.010Z,84.72
2023-04-22T05:40:25.331Z,78.72
2023-04-22T05:42:52.978Z,84.28
2023-04-22T05:45:20.693Z,88.12
2023-04-22T05:47:48.634Z,86.89
2023-04-22T05:50:16.290Z,93.76
2023-04-22T05:52:43.939Z,88.16
2023-04-22T05:55:11.653Z,93.35
2023-04-22T05:57:40.707Z,93.15
2023-04-22T06:00:10.427Z,91.74
2023-04-22T06:02:38.248Z,91.30
2023-04-22T06:05:07.230Z,89.05
2023-04-22T06:07:35.038Z,88.13
2023-04-22T06:10:05.362Z,84.10
2023-04-22T06:12:34.125Z,80.47
2023-04-22T06:15:03.320Z,82.58
2023-04-22T06:17:31.073Z,86.06
2023-04-22T06:19:58.775Z,88.72
2023-04-22T06:22:26.523Z,88.04
2023-04-22T06:24:54.393Z,77.12
2023-04-22T06:27:42.829Z,73.74
2023-04-22T06:30:12.623Z,80.09
2023-04-22T06:32:40.305Z,91.80
2023-04-22T06:35:09.163Z,87.55
2023-04-22T06:37:52.518Z,85.95
2023-04-22T06:40:20.154Z,81.92
2023-04-22T06:42:48.028Z,76.15
2023-04-22T06:45:17.118Z,79.00
2023-04-22T06:47:44.793Z,78.62
2023-04-22T06:50:12.657Z,82.47
2023-04-22T06:52:40.344Z,77.46
2023-04-22T06:55:11.470Z,80.86
2023-04-22T06:57:39.246Z,73.42
2023-04-22T07:00:08.629Z,75.65
2023-04-22T07:02:37.786Z,74.22
2023-04-22T07:05:06.213Z,78.29
2023-04-22T07:07:33.896Z,79.73
2023-04-22T07:10:30.695Z,75.75
2023-04-22T07:12:58.645Z,77.41
2023-04-22T07:15:26.356Z,76.58
2023-04-22T07:17:55.671Z,70.32
2023-04-22T07:20:23.632Z,68.26
2023-04-22T07:22:52.468Z,69.46
2023-04-22T07:25:20.155Z,75.81
2023-04-22T07:27:47.793Z,66.99
2023-04-22T07:30:15.877Z,65.85
2023-04-22T07:32:43.610Z,77.39
2023-04-22T07:35:12.742Z,71.10
2023-04-22T07:37:40.415Z,75.06
2023-04-22T07:40:11.830Z,75.73
2023-04-22T07:42:39.971Z,66.24
2023-04-22T07:45:08.651Z,70.52
2023-04-22T07:47:36.369Z,72.34
2023-04-22T07:50:04.668Z,70.85
2023-04-22T07:52:33.748Z,69.63
2023-04-22T07:55:01.780Z,71.22
2023-04-22T07:57:29.769Z,67.07
2023-04-22T07:59:57.418Z,62.88
2023-04-22T08:02:25.359Z,62.67
2023-04-22T08:04:53.216Z,63.72
2023-04-22T08:09:53.032Z,64.84
2023-04-22T08:12:20.726Z,64.49
2023-04-22T08:14:48.639Z,64.14
2023-04-22T08:17:16.281Z,65.51
2023-04-22T08:19:43.957Z,61.04
2023-04-22T08:22:13.637Z,62.86
2023-04-22T08:24:41.370Z,61.19
2023-04-22T08:27:10.425Z,62.07
2023-04-22T08:29:38.741Z,60.73
2023-04-22T08:32:06.748Z,60.54
2023-04-22T08:34:34.408Z,59.78
2023-04-22T08:37:02.076Z,56.36
2023-04-22T08:39:30.144Z,55.33
2023-04-22T08:41:58.456Z,53.15
2023-04-22T08:44:28.000Z,55.09
2023-04-22T08:46:56.395Z,51.94
2023-04-22T08:49:25.238Z,49.19
2023-04-22T08:51:53.752Z,53.75
2023-04-22T08:54:21.429Z,54.18
2023-04-22T08:56:51.208Z,50.51
2023-04-22T08:59:19.481Z,49.35
2023-04-22T09:01:51.505Z,50.42
2023-04-22T09:04:20.044Z,48.22
2023-04-22T09:06:47.917Z,49.58
2023-04-22T09:09:15.686Z,49.27
2023-04-22T09:11:43.377Z,48.14
2023-04-22T09:14:11.095Z,47.23
2023-04-22T09:16:42.703Z,45.44
2023-04-22T09:19:14.877Z,47.95
2023-04-22T09:21:43.137Z,47.88
2023-04-22T09:24:12.343Z,47.15
2023-04-22T09:26:41.028Z,48.08
2023-04-22T09:29:09.680Z,46.39
2023-04-22T09:31:38.478Z,47.02
2023-04-22T09:34:06.954Z,46.96
2023-04-22T09:36:37.699Z,47.98
2023-04-22T09:39:08.747Z,45.68
2023-04-22T09:41:38.777Z,44.24
2023-04-22T09:44:10.259Z,44.76
2023-04-22T09:46:37.991Z,45.53
2023-04-22T09:49:05.770Z,46.39
2023-04-22T09:51:34.551Z,46.49
2023-04-22T09:54:06.733Z,46.75
2023-04-22T09:56:48.114Z,45.15
2023-04-22T09:59:17.050Z,47.62
2023-04-22T10:01:44.784Z,44.88
2023-04-22T10:04:15.032Z,44.10
2023-04-22T10:06:43.227Z,45.16
2023-04-22T10:09:13.318Z,44.51
2023-04-22T10:11:41.737Z,44.73
2023-04-22T10:14:11.198Z,46.44
2023-04-22T10:16:39.818Z,46.32
2023-04-22T10:19:08.785Z,44.41
2023-04-22T10:21:36.808Z,45.18
2023-04-22T10:24:05.151Z,46.37
2023-04-22T10:26:45.378Z,45.34
2023-04-22T10:29:17.138Z,43.25
2023-04-22T10:31:45.798Z,44.22
2023-04-22T10:34:14.716Z,44.00
2023-04-22T10:36:55.915Z,44.64
2023-04-22T10:39:24.345Z,43.92
2023-04-22T10:41:59.353Z,43.54
2023-04-22T10:44:30.696Z,43.03
2023-04-22T10:47:00.742Z,42.36
2023-04-22T10:49:52.203Z,41.74
2023-04-22T10:52:29.423Z,41.66
2023-04-22T10:54:59.843Z,41.00
2023-04-22T10:57:41.737Z,41.51
2023-04-22T11:00:30.975Z,42.62
2023-04-22T11:03:12.618Z,42.16
2023-04-22T11:05:41.174Z,42.19
2023-04-22T11:08:11.759Z,42.85
2023-04-22T11:10:44.105Z,41.22
2023-04-22T11:13:16.139Z,40.83
2023-04-22T11:15:45.823Z,42.03
2023-04-22T11:18:21.496Z,41.08
2023-04-22T11:20:50.755Z,41.49
2023-04-22T11:23:21.164Z,40.22
2023-04-22T11:25:49.062Z,40.92
2023-04-22T11:28:22.874Z,40.38
2023-04-22T11:30:51.062Z,41.06
2023-04-22T11:33:18.987Z,39.57
2023-04-22T11:35:46.713Z,41.54
2023-04-22T11:38:14.498Z,39.73
2023-04-22T11:40:46.504Z,39.38
2023-04-22T11:43:14.962Z,38.02
2023-04-22T11:45:44.131Z,39.58
2023-04-22T11:48:12.847Z,38.79
2023-04-22T11:50:42.183Z,37.65
2023-04-22T11:53:15.458Z,39.12
2023-04-22T11:55:43.738Z,38.96
2023-04-22T11:58:13.452Z,37.40
2023-04-22T12:00:42.546Z,36.84
2023-04-22T12:03:17.926Z,37.46
2023-04-22T12:05:47.369Z,38.66
2023-04-22T12:08:16.696Z,36.18
2023-04-22T12:10:45.931Z,36.80
2023-04-22T12:13:19.857Z,38.74
2023-04-22T12:15:47.648Z,37.38
2023-04-22T12:18:16.759Z,38.94
2023-04-22T12:20:44.740Z,37.33
2023-04-22T12:23:16.225Z,37.57
2023-04-22T12:25:44.483Z,38.53
2023-04-22T12:28:13.433Z,37.35
2023-04-22T12:30:41.110Z,38.31
2023-04-22T12:33:09.458Z,37.43
2023-04-22T12:35:38.532Z,36.92
2023-04-22T12:41:10.841Z,37.33
2023-04-22T12:43:39.478Z,36.67
2023-04-22T12:46:08.002Z,37.82
2023-04-22T12:48:37.267Z,38.24
2023-04-22T12:51:07.506Z,38.73
2023-04-22T12:53:35.560Z,37.26
2023-04-22T12:56:03.259Z,37.76
2023-04-22T12:58:31.211Z,38.69
2023-04-22T13:00:58.922Z,39.03
2023-04-22T13:03:27.095Z,38.54
2023-04-22T13:05:56.017Z,39.42
2023-04-22T13:08:25.450Z,38.84
2023-04-22T13:10:53.931Z,38.02
2023-04-22T13:13:21.884Z,38.96
2023-04-22T13:15:53.315Z,39.76
2023-04-22T13:18:22.998Z,39.52
2023-04-22T13:20:51.292Z,39.96
2023-04-22T13:23:19.795Z,40.75
2023-04-22T13:25:48.933Z,40.10
2023-04-22T13:28:16.868Z,40.41
2023-04-22T13:30:44.693Z,40.38
2023-04-22T13:33:12.372Z,40.41
2023-04-22T13:35:40.649Z,41.77
2023-04-22T13:38:08.404Z,40.41
2023-04-22T13:40:36.231Z,40.22
2023-04-22T13:43:05.434Z,40.33
2023-04-22T13:45:33.500Z,40.98
2023-04-22T13:48:01.735Z,43.80
2023-04-22T13:50:29.445Z,43.46
2023-04-22T13:52:57.182Z,43.17
2023-04-22T13:55:26.668Z,41.72
2023-04-22T13:57:57.379Z,42.85
2023-04-22T14:00:26.446Z,38.27
2023-04-22T14:02:54.256Z,41.16
2023-04-22T14:05:21.989Z,41.15
2023-04-22T14:07:49.641Z,40.46
2023-04-22T14:10:20.325Z,38.97
2023-04-22T14:12:48.848Z,36.12
2023-04-22T14:15:16.709Z,35.81
2023-04-22T14:17:49.351Z,33.99
2023-04-22T14:20:17.941Z,34.71
2023-04-22T14:22:46.388Z,34.62
2023-04-22T14:25:14.392Z,37.38
2023-04-22T14:27:42.637Z,38.49
2023-04-22T14:30:11.188Z,39.24
2023-04-22T14:32:39.022Z,37.85
2023-04-22T14:35:09.109Z,40.12
2023-04-22T14:37:36.810Z,40.10
2023-04-22T14:40:05.705Z,39.19
2023-04-22T14:42:33.476Z,41.37
2023-04-22T14:45:01.540Z,39.64
2023-04-22T14:47:29.922Z,40.44
2023-04-22T14:49:57.653Z,37.95
2023-04-22T14:52:26.895Z,38.64
2023-04-22T14:54:54.563Z,40.73
2023-04-22T14:57:22.230Z,42.13
2023-04-22T14:59:50.144Z,41.45
2023-04-22T15:02:18.079Z,39.54
2023-04-22T15:04:45.803Z,41.95
2023-04-22T15:07:13.608Z,41.63
2023-04-22T15:09:43.096Z,44.92
2023-04-22T15:12:11.463Z,43.75
2023-04-22T15:14:39.969Z,42.48
2023-04-22T15:17:07.764Z,43.54
2023-04-22T15:19:35.631Z,43.58
2023-04-22T15:22:03.567Z,43.43
2023-04-22T15:24:31.559Z,45.02
2023-04-22T15:27:01.280Z,44.58
2023-04-22T15:29:29.469Z,46.08
2023-04-22T15:31:57.846Z,48.21
2023-04-22T15:34:25.986Z,52.34
2023-04-22T15:36:54.162Z,55.03
2023-04-22T15:39:22.204Z,55.14
2023-04-22T15:41:49.951Z,53.38
2023-04-22T15:44:19.283Z,55.69
2023-04-22T15:46:47.383Z,54.46
2023-04-22T15:49:15.805Z,54.32
2023-04-22T15:51:43.556Z,56.55
2023-04-22T15:54:11.454Z,54.62
2023-04-22T15:56:39.144Z,58.42
2023-04-22T15:59:07.025Z,60.23
2023-04-22T16:01:36.138Z,62.90
2023-04-22T16:04:04.388Z,63.98
2023-04-22T16:06:32.298Z,65.21
2023-04-22T16:08:59.973Z,65.96
2023-04-22T16:11:27.650Z,69.74
2023-04-22T16:13:55.300Z,66.92
2023-04-22T16:16:23.836Z,69.75
2023-04-22T16:18:53.314Z,68.88
2023-04-22T16:21:21.216Z,66.35
2023-04-22T16:23:49.675Z,67.59
2023-04-22T16:26:17.430Z,68.28
2023-04-22T16:28:46.736Z,70.18
2023-04-22T16:31:14.576Z,69.84
2023-04-22T16:33:42.260Z,65.58
2023-04-22T16:36:11.472Z,65.08
2023-04-22T16:38:39.168Z,65.33
2023-04-22T16:41:07.355Z,64.80
2023-04-22T16:43:35.068Z,64.01
2023-04-22T16:46:03.760Z,67.23
2023-04-22T16:48:31.547Z,67.21
2023-04-22T16:50:59.273Z,70.21
2023-04-22T16:53:28.409Z,71.22
2023-04-22T16:55:56.664Z,71.29
2023-04-22T16:58:24.416Z,69.49
2023-04-22T17:00:52.665Z,70.13
2023-04-22T17:03:21.334Z,67.95
2023-04-22T17:05:49.134Z,73.54
2023-04-22T17:08:17.059Z,70.03
2023-04-22T17:10:46.388Z,74.07
2023-04-22T17:13:14.479Z,76.71
2023-04-22T17:15:42.307Z,75.30
2023-04-22T17:18:10.626Z,72.52
2023-04-22T17:20:38.506Z,70.36
2023-04-22T17:23:06.183Z,71.22
2023-04-22T17:25:33.901Z,70.22
2023-04-22T17:28:02.992Z,68.76
2023-04-22T17:30:30.775Z,71.11
2023-04-22T17:32:58.807Z,72.24
2023-04-22T17:35:26.510Z,66.64
2023-04-22T17:37:54.465Z,68.55
2023-04-22T17:40:23.059Z,68.89
2023-04-22T17:42:51.224Z,68.25
2023-04-22T17:45:20.357Z,70.90
2023-04-22T17:47:48.814Z,64.81
2023-04-22T17:50:16.856Z,66.87
2023-04-22T17:52:44.604Z,67.43
2023-04-22T17:55:12.372Z,66.02
2023-04-22T17:57:40.810Z,68.14
2023-04-22T18:00:10.194Z,70.99
2023-04-22T18:02:39.425Z,73.62
2023-04-22T18:05:07.887Z,71.73
2023-04-22T18:07:35.600Z,74.74
2023-04-22T18:10:03.381Z,75.40
2023-04-22T18:12:31.276Z,79.69
2023-04-22T18:14:59.296Z,80.49
2023-04-22T18:17:27.059Z,84.06
2023-04-22T18:20:09.687Z,88.48
2023-04-22T18:22:42.686Z,96.49
2023-04-22T18:25:10.519Z,90.53
2023-04-22T18:27:38.231Z,89.65
2023-04-22T18:30:07.238Z,89.96
2023-04-22T18:32:35.954Z,91.32
2023-04-22T18:35:06.027Z,94.79
2023-04-22T18:37:34.879Z,89.11
2023-04-22T18:40:02.906Z,85.80
2023-04-22T18:42:31.040Z,89.73
2023-04-22T18:44:58.849Z,88.90
2023-04-22T18:47:27.071Z,90.52
2023-04-22T18:49:54.734Z,93.26
2023-04-22T18:52:23.802Z,85.88
2023-04-22T18:54:51.548Z,88.71
2023-04-22T18:57:19.586Z,84.20
2023-04-22T18:59:48.463Z,86.36
2023-04-22T19:02:16.996Z,84.84
2023-04-22T19:04:45.111Z,91.29
2023-04-22T19:07:13.654Z,89.86
2023-04-22T19:09:42.664Z,85.77
2023-04-22T19:12:14.827Z,81.83
2023-04-22T19:14:42.912Z,87.65
2023-04-22T19:17:11.001Z,85.88
2023-04-22T19:19:39.093Z,83.10
2023-04-22T19:22:07.071Z,87.39
2023-04-22T19:24:35.378Z,91.27
2023-04-22T19:27:06.915Z,88.92
2023-04-22T19:29:34.684Z,91.14
2023-04-22T19:32:03.406Z,88.74
2023-04-22T19:34:31.580Z,91.85
2023-04-22T19:36:59.200Z,86.03
2023-04-22T19:39:26.923Z,86.16
2023-04-22T19:41:58.202Z,91.00
2023-04-22T19:44:27.304Z,90.65
2023-04-22T19:46:55.258Z,92.32
2023-04-22T19:49:23.792Z,91.54
2023-04-22T19:51:52.494Z,91.02
2023-04-22T19:54:21.940Z,92.28
2023-04-22T19:56:49.797Z,91.54
2023-04-22T19:59:17.902Z,94.82
2023-04-22T20:01:47.498Z,94.48
2023-04-22T20:04:16.043Z,95.37
2023-04-22T20:06:44.806Z,90.56
2023-04-22T20:09:13.315Z,95.23
2023-04-22T20:11:41.860Z,95.93
2023-04-22T20:14:10.408Z,95.26
2023-04-22T20:16:38.972Z,97.68
2023-04-22T20:19:08.278Z,90.47
2023-04-22T20:21:36.944Z,90.39
2023-04-22T20:24:05.863Z,87.65
2023-04-22T20:26:33.886Z,97.52
2023-04-22T20:29:01.716Z,100.00
2023-04-22T20:31:30.493Z,98.74
2023-04-22T20:33:58.688Z,100.00
2023-04-22T20:36:27.818Z,100.00
2023-04-22T20:38:56.202Z,100.00
2023-04-22T20:41:25.515Z,100.00
2023-04-22T20:43:53.320Z,100.00
2023-04-22T20:46:23.351Z,100.00
2023-04-22T20:48:51.664Z,97.59
2023-04-22T20:51:19.549Z,100.00
2023-04-22T20:53:48.568Z,100.00
2023-04-22T20:56:16.390Z,100.00
2023-04-22T20:58:44.083Z,100.00
2023-04-22T21:01:12.112Z,100.00
2023-04-22T21:03:40.416Z,100.00
2023-04-22T21:06:09.086Z,100.00
2023-04-22T21:08:39.224Z,100.00
2023-04-22T21:11:08.843Z,100.00
2023-04-22T21:13:37.076Z,100.00
2023-04-22T21:16:06.016Z,100.00
2023-04-22T21:18:35.656Z,100.00
2023-04-22T21:21:04.713Z,100.00
2023-04-22T21:23:33.122Z,100.00
2023-04-22T21:26:02.638Z,100.00
2023-04-22T21:28:32.410Z,100.00
2023-04-22T21:31:01.016Z,100.00
2023-04-22T21:33:28.698Z,100.00
2023-04-22T21:35:56.467Z,100.00
2023-04-22T21:38:24.131Z,100.00
2023-04-22T21:40:51.956Z,100.00
2023-04-22T21:43:19.654Z,100.00
2023-04-22T21:45:48.676Z,100.00
2023-04-22T21:48:16.353Z,100.00
2023-04-22T21:50:44.094Z,100.00
2023-04-22T21:53:12.294Z,100.00
2023-04-22T21:55:40.014Z,100.00
2023-04-22T21:58:07.975Z,100.00
2023-04-22T22:00:37.712Z,100.00
2023-04-22T22:03:07.253Z,100.00
2023-04-22T22:05:35.265Z,100.00
2023-04-22T22:08:03.186Z,100.00
2023-04-22T22:10:30.888Z,99.71
2023-04-22T22:12:58.536Z,100.00
2023-04-22T22:15:26.176Z,100.00
2023-04-22T22:17:53.964Z,100.00
2023-04-22T22:20:23.878Z,100.00
2023-04-22T22:22:51.581Z,98.71
2023-04-22T22:25:19.225Z,99.78
2023-04-22T22:27:48.748Z,100.00
2023-04-22T22:30:17.007Z,100.00
2023-04-22T22:32:44.746Z,100.00
2023-04-22T22:35:12.473Z,100.00
2023-04-22T22:37:42.182Z,100.00
2023-04-22T22:40:11.170Z,100.00
2023-04-22T22:42:38.811Z,100.00
2023-04-22T22:45:07.612Z,100.00
2023-04-22T22:47:35.375Z,100.00
2023-04-22T22:50:03.222Z,100.00
2023-04-22T22:52:31.989Z,100.00
2023-04-22T22:55:01.073Z,100.00
2023-04-22T22:57:28.725Z,100.00
2023-04-22T22:59:56.430Z,100.00
2023-04-22T23:02:24.159Z,100.00
2023-04-22T23:04:51.912Z,100.00
2023-04-22T23:07:19.592Z,100.00
2023-04-22T23:09:47.220Z,100.00
2023-04-22T23:12:16.285Z,100.00
2023-04-22T23:14:44.243Z,100.00
2023-04-22T23:17:11.941Z,97.92
2023-04-22T23:19:40.425Z,96.30
2023-04-22T23:22:08.351Z,98.70
2023-04-22T23:24:36.828Z,99.14
2023-04-22T23:27:05.493Z,98.35
2023-04-22T23:29:36.678Z,100.00
2023-04-22T23:32:05.448Z,95.32
2023-04-22T23:34:35.154Z,100.00
2023-04-22T23:37:05.419Z,97.71
2023-04-22T23:42:14.556Z,100.00
2023-04-22T23:44:43.669Z,94.37
2023-04-22T23:47:12.280Z,100.00
2023-04-22T23:49:41.521Z,95.68
2023-04-22T23:52:10.456Z,100.00
2023-04-22T23:54:38.767Z,100.00
2023-04-22T23:57:07.308Z,100.00
